sensor_id;sensor_type;location;lat;lon;timestamp;P1;durP1;ratioP1;P2;durP2;ratioP2
25653;SDS011;13511;48.622;9.230;2023-06-10T00:00:48;17.08;;;15.57;;
25653;SDS011;13511;48.622;9.230;2023-06-10T00:03:15;17.42;;;16.23;;
25653;SDS011;13511;48.622;9.230;2023-06-10T00:05:42;17.00;;;15.70;;
25653;SDS011;13511;48.622;9.230;2023-06-10T00:08:08;17.10;;;15.90;;
25653;SDS011;13511;48.622;9.230;2023-06-10T00:10:36;17.33;;;16.08;;
25653;SDS011;13511;48.622;9.230;2023-06-10T00:13:04;16.90;;;15.70;;
25653;SDS011;13511;48.622;9.230;2023-06-10T00:15:30;17.63;;;16.08;;
25653;SDS011;13511;48.622;9.230;2023-06-10T00:17:56;17.55;;;16.20;;
25653;SDS011;13511;48.622;9.230;2023-06-10T00:20:22;16.98;;;15.55;;
25653;SDS011;13511;48.622;9.230;2023-06-10T00:22:50;16.63;;;15.52;;
25653;SDS011;13511;48.622;9.230;2023-06-10T00:25:16;17.33;;;15.88;;
25653;SDS011;13511;48.622;9.230;2023-06-10T00:27:42;17.27;;;16.08;;
25653;SDS011;13511;48.622;9.230;2023-06-10T00:30:08;17.48;;;16.02;;
25653;SDS011;13511;48.622;9.230;2023-06-10T00:32:35;18.45;;;16.88;;
25653;SDS011;13511;48.622;9.230;2023-06-10T00:35:01;17.90;;;16.60;;
25653;SDS011;13511;48.622;9.230;2023-06-10T00:37:28;18.08;;;16.33;;
25653;SDS011;13511;48.622;9.230;2023-06-10T00:39:55;18.30;;;16.77;;
25653;SDS011;13511;48.622;9.230;2023-06-10T00:42:21;17.55;;;16.05;;
25653;SDS011;13511;48.622;9.230;2023-06-10T00:44:49;18.48;;;17.25;;
25653;SDS011;13511;48.622;9.230;2023-06-10T00:47:15;17.67;;;16.40;;
25653;SDS011;13511;48.622;9.230;2023-06-10T00:49:42;17.85;;;16.52;;
25653;SDS011;13511;48.622;9.230;2023-06-10T00:52:09;18.65;;;17.15;;
25653;SDS011;13511;48.622;9.230;2023-06-10T00:54:36;18.45;;;17.10;;
25653;SDS011;13511;48.622;9.230;2023-06-10T00:57:02;18.58;;;17.27;;
25653;SDS011;13511;48.622;9.230;2023-06-10T00:59:29;18.13;;;16.75;;
25653;SDS011;13511;48.622;9.230;2023-06-10T01:01:56;18.70;;;17.20;;
25653;SDS011;13511;48.622;9.230;2023-06-10T01:04:22;17.77;;;16.48;;
25653;SDS011;13511;48.622;9.230;2023-06-10T01:12:10;17.77;;;16.55;;
25653;SDS011;13511;48.622;9.230;2023-06-10T01:14:37;18.55;;;17.15;;
25653;SDS011;13511;48.622;9.230;2023-06-10T01:17:04;20.00;;;18.17;;
25653;SDS011;13511;48.622;9.230;2023-06-10T01:19:31;19.27;;;17.50;;
25653;SDS011;13511;48.622;9.230;2023-06-10T01:21:58;18.73;;;17.33;;
25653;SDS011;13511;48.622;9.230;2023-06-10T01:24:26;19.55;;;17.92;;
25653;SDS011;13511;48.622;9.230;2023-06-10T01:26:53;18.67;;;17.27;;
25653;SDS011;13511;48.622;9.230;2023-06-10T01:29:25;19.35;;;17.88;;
25653;SDS011;13511;48.622;9.230;2023-06-10T01:34:23;20.75;;;18.60;;
25653;SDS011;13511;48.622;9.230;2023-06-10T01:36:49;19.52;;;18.13;;
25653;SDS011;13511;48.622;9.230;2023-06-10T01:39:16;19.92;;;18.30;;
25653;SDS011;13511;48.622;9.230;2023-06-10T01:41:43;19.02;;;17.55;;
25653;SDS011;13511;48.622;9.230;2023-06-10T01:44:10;18.63;;;17.33;;
25653;SDS011;13511;48.622;9.230;2023-06-10T01:46:36;19.20;;;17.70;;
25653;SDS011;13511;48.622;9.230;2023-06-10T01:49:02;18.80;;;17.33;;
25653;SDS011;13511;48.622;9.230;2023-06-10T01:51:28;19.85;;;18.25;;
25653;SDS011;13511;48.622;9.230;2023-06-10T01:53:56;18.73;;;17.30;;
25653;SDS011;13511;48.622;9.230;2023-06-10T01:56:22;19.00;;;17.50;;
25653;SDS011;13511;48.622;9.230;2023-06-10T01:58:48;19.45;;;17.90;;
25653;SDS011;13511;48.622;9.230;2023-06-10T02:01:14;18.83;;;17.42;;
25653;SDS011;13511;48.622;9.230;2023-06-10T02:03:40;18.95;;;17.35;;
25653;SDS011;13511;48.622;9.230;2023-06-10T02:06:06;19.50;;;17.98;;
25653;SDS011;13511;48.622;9.230;2023-06-10T02:08:32;19.35;;;17.80;;
25653;SDS011;13511;48.622;9.230;2023-06-10T02:10:58;21.20;;;19.23;;
25653;SDS011;13511;48.622;9.230;2023-06-10T02:13:24;20.88;;;19.02;;
25653;SDS011;13511;48.622;9.230;2023-06-10T02:15:50;20.10;;;18.40;;
25653;SDS011;13511;48.622;9.230;2023-06-10T02:18:18;19.00;;;17.50;;
25653;SDS011;13511;48.622;9.230;2023-06-10T02:20:45;20.10;;;18.23;;
25653;SDS011;13511;48.622;9.230;2023-06-10T02:23:11;19.58;;;18.08;;
25653;SDS011;13511;48.622;9.230;2023-06-10T02:25:37;19.30;;;17.90;;
25653;SDS011;13511;48.622;9.230;2023-06-10T02:28:03;19.52;;;18.10;;
25653;SDS011;13511;48.622;9.230;2023-06-10T02:30:30;19.80;;;18.33;;
25653;SDS011;13511;48.622;9.230;2023-06-10T02:32:56;20.95;;;19.10;;
25653;SDS011;13511;48.622;9.230;2023-06-10T02:35:22;21.00;;;19.30;;
25653;SDS011;13511;48.622;9.230;2023-06-10T02:37:49;20.58;;;19.00;;
25653;SDS011;13511;48.622;9.230;2023-06-10T02:40:15;19.38;;;17.88;;
25653;SDS011;13511;48.622;9.230;2023-06-10T02:42:41;19.60;;;18.23;;
25653;SDS011;13511;48.622;9.230;2023-06-10T02:45:07;19.95;;;18.55;;
25653;SDS011;13511;48.622;9.230;2023-06-10T02:47:33;21.42;;;19.73;;
25653;SDS011;13511;48.622;9.230;2023-06-10T02:49:59;20.58;;;18.60;;
25653;SDS011;13511;48.622;9.230;2023-06-10T02:52:25;19.77;;;18.23;;
25653;SDS011;13511;48.622;9.230;2023-06-10T02:54:51;20.02;;;18.30;;
25653;SDS011;13511;48.622;9.230;2023-06-10T02:57:17;19.73;;;18.25;;
25653;SDS011;13511;48.622;9.230;2023-06-10T02:59:43;19.27;;;17.65;;
25653;SDS011;13511;48.622;9.230;2023-06-10T03:02:10;19.05;;;17.60;;
25653;SDS011;13511;48.622;9.230;2023-06-10T03:04:37;20.92;;;18.92;;
25653;SDS011;13511;48.622;9.230;2023-06-10T03:07:03;19.95;;;18.55;;
25653;SDS011;13511;48.622;9.230;2023-06-10T03:09:32;19.30;;;17.95;;
25653;SDS011;13511;48.622;9.230;2023-06-10T03:11:58;19.58;;;18.17;;
25653;SDS011;13511;48.622;9.230;2023-06-10T03:14:25;20.25;;;18.63;;
25653;SDS011;13511;48.622;9.230;2023-06-10T03:16:51;19.90;;;18.33;;
25653;SDS011;13511;48.622;9.230;2023-06-10T03:19:17;19.95;;;18.23;;
25653;SDS011;13511;48.622;9.230;2023-06-10T03:21:44;20.67;;;18.88;;
25653;SDS011;13511;48.622;9.230;2023-06-10T03:24:10;19.25;;;17.65;;
25653;SDS011;13511;48.622;9.230;2023-06-10T03:26:36;20.20;;;18.67;;
25653;SDS011;13511;48.622;9.230;2023-06-10T03:29:02;21.25;;;19.52;;
25653;SDS011;13511;48.622;9.230;2023-06-10T03:31:28;19.58;;;18.02;;
25653;SDS011;13511;48.622;9.230;2023-06-10T03:33:54;19.83;;;18.33;;
25653;SDS011;13511;48.622;9.230;2023-06-10T03:36:20;19.70;;;18.10;;
25653;SDS011;13511;48.622;9.230;2023-06-10T03:38:46;20.83;;;18.88;;
25653;SDS011;13511;48.622;9.230;2023-06-10T03:41:12;20.73;;;19.23;;
25653;SDS011;13511;48.622;9.230;2023-06-10T03:43:38;18.90;;;17.40;;
25653;SDS011;13511;48.622;9.230;2023-06-10T03:46:05;19.70;;;18.17;;
25653;SDS011;13511;48.622;9.230;2023-06-10T03:48:31;20.23;;;18.75;;
25653;SDS011;13511;48.622;9.230;2023-06-10T03:50:58;19.90;;;18.20;;
25653;SDS011;13511;48.622;9.230;2023-06-10T03:53:24;20.38;;;18.60;;
25653;SDS011;13511;48.622;9.230;2023-06-10T03:55:50;19.67;;;18.17;;
25653;SDS011;13511;48.622;9.230;2023-06-10T03:58:16;19.45;;;17.73;;
25653;SDS011;13511;48.622;9.230;2023-06-10T04:00:43;19.73;;;18.23;;
25653;SDS011;13511;48.622;9.230;2023-06-10T04:03:10;19.73;;;17.98;;
25653;SDS011;13511;48.622;9.230;2023-06-10T04:05:39;19.58;;;17.98;;
25653;SDS011;13511;48.622;9.230;2023-06-10T04:08:06;19.58;;;17.83;;
25653;SDS011;13511;48.622;9.230;2023-06-10T04:10:32;19.15;;;17.52;;
25653;SDS011;13511;48.622;9.230;2023-06-10T04:12:58;19.83;;;18.15;;
25653;SDS011;13511;48.622;9.230;2023-06-10T04:15:24;19.42;;;17.58;;
25653;SDS011;13511;48.622;9.230;2023-06-10T04:17:50;20.42;;;18.73;;
25653;SDS011;13511;48.622;9.230;2023-06-10T04:20:17;19.52;;;17.88;;
25653;SDS011;13511;48.622;9.230;2023-06-10T04:22:43;19.15;;;17.55;;
25653;SDS011;13511;48.622;9.230;2023-06-10T04:25:09;18.00;;;16.60;;
25653;SDS011;13511;48.622;9.230;2023-06-10T04:27:35;18.17;;;16.70;;
25653;SDS011;13511;48.622;9.230;2023-06-10T04:30:02;18.27;;;16.83;;
25653;SDS011;13511;48.622;9.230;2023-06-10T04:32:29;17.83;;;16.50;;
25653;SDS011;13511;48.622;9.230;2023-06-10T04:34:55;18.90;;;17.50;;
25653;SDS011;13511;48.622;9.230;2023-06-10T04:37:21;18.52;;;17.02;;
25653;SDS011;13511;48.622;9.230;2023-06-10T04:39:47;20.02;;;18.10;;
25653;SDS011;13511;48.622;9.230;2023-06-10T04:42:13;17.55;;;16.25;;
25653;SDS011;13511;48.622;9.230;2023-06-10T04:44:39;18.10;;;16.38;;
25653;SDS011;13511;48.622;9.230;2023-06-10T04:47:06;18.92;;;17.15;;
25653;SDS011;13511;48.622;9.230;2023-06-10T04:49:33;18.25;;;16.85;;
25653;SDS011;13511;48.622;9.230;2023-06-10T04:51:59;18.77;;;17.17;;
25653;SDS011;13511;48.622;9.230;2023-06-10T04:54:25;17.42;;;15.93;;
25653;SDS011;13511;48.622;9.230;2023-06-10T04:56:51;18.50;;;16.77;;
25653;SDS011;13511;48.622;9.230;2023-06-10T04:59:17;17.95;;;16.52;;
25653;SDS011;13511;48.622;9.230;2023-06-10T05:01:43;20.10;;;18.23;;
25653;SDS011;13511;48.622;9.230;2023-06-10T05:04:09;19.02;;;17.40;;
25653;SDS011;13511;48.622;9.230;2023-06-10T05:06:35;17.90;;;16.40;;
25653;SDS011;13511;48.622;9.230;2023-06-10T05:09:01;17.75;;;16.38;;
25653;SDS011;13511;48.622;9.230;2023-06-10T05:11:27;17.60;;;16.15;;
25653;SDS011;13511;48.622;9.230;2023-06-10T05:13:53;17.27;;;15.98;;
25653;SDS011;13511;48.622;9.230;2023-06-10T05:16:19;18.42;;;16.75;;
25653;SDS011;13511;48.622;9.230;2023-06-10T05:18:46;17.50;;;16.20;;
25653;SDS011;13511;48.622;9.230;2023-06-10T05:21:12;17.73;;;16.27;;
25653;SDS011;13511;48.622;9.230;2023-06-10T05:23:38;16.30;;;15.00;;
25653;SDS011;13511;48.622;9.230;2023-06-10T05:26:04;17.67;;;15.93;;
25653;SDS011;13511;48.622;9.230;2023-06-10T05:28:30;17.05;;;15.52;;
25653;SDS011;13511;48.622;9.230;2023-06-10T05:30:56;17.08;;;15.77;;
25653;SDS011;13511;48.622;9.230;2023-06-10T05:33:22;17.23;;;15.73;;
25653;SDS011;13511;48.622;9.230;2023-06-10T05:35:48;15.63;;;14.52;;
25653;SDS011;13511;48.622;9.230;2023-06-10T05:38:14;16.27;;;15.13;;
25653;SDS011;13511;48.622;9.230;2023-06-10T05:40:41;16.40;;;15.20;;
25653;SDS011;13511;48.622;9.230;2023-06-10T05:43:07;16.10;;;14.90;;
25653;SDS011;13511;48.622;9.230;2023-06-10T05:45:34;16.75;;;15.55;;
25653;SDS011;13511;48.622;9.230;2023-06-10T05:48:00;16.77;;;15.52;;
25653;SDS011;13511;48.622;9.230;2023-06-10T05:50:26;16.33;;;15.02;;
25653;SDS011;13511;48.622;9.230;2023-06-10T05:52:52;15.88;;;14.40;;
25653;SDS011;13511;48.622;9.230;2023-06-10T05:55:19;17.30;;;15.30;;
25653;SDS011;13511;48.622;9.230;2023-06-10T05:57:45;15.90;;;14.40;;
25653;SDS011;13511;48.622;9.230;2023-06-10T06:00:11;15.43;;;14.35;;
25653;SDS011;13511;48.622;9.230;2023-06-10T06:02:38;15.25;;;14.15;;
25653;SDS011;13511;48.622;9.230;2023-06-10T06:05:05;14.90;;;13.90;;
25653;SDS011;13511;48.622;9.230;2023-06-10T06:07:31;14.15;;;13.05;;
25653;SDS011;13511;48.622;9.230;2023-06-10T06:09:57;14.68;;;13.63;;
25653;SDS011;13511;48.622;9.230;2023-06-10T06:12:23;14.13;;;13.13;;
25653;SDS011;13511;48.622;9.230;2023-06-10T06:14:49;13.90;;;12.70;;
25653;SDS011;13511;48.622;9.230;2023-06-10T06:17:15;13.82;;;12.75;;
25653;SDS011;13511;48.622;9.230;2023-06-10T06:19:41;13.35;;;12.43;;
25653;SDS011;13511;48.622;9.230;2023-06-10T06:22:07;13.60;;;12.68;;
25653;SDS011;13511;48.622;9.230;2023-06-10T06:24:33;13.77;;;12.48;;
25653;SDS011;13511;48.622;9.230;2023-06-10T06:26:59;13.75;;;12.48;;
25653;SDS011;13511;48.622;9.230;2023-06-10T06:29:25;13.55;;;12.18;;
25653;SDS011;13511;48.622;9.230;2023-06-10T06:31:51;13.30;;;11.98;;
25653;SDS011;13511;48.622;9.230;2023-06-10T06:34:17;13.70;;;12.30;;
25653;SDS011;13511;48.622;9.230;2023-06-10T06:36:43;13.23;;;12.13;;
25653;SDS011;13511;48.622;9.230;2023-06-10T06:39:09;12.90;;;12.00;;
25653;SDS011;13511;48.622;9.230;2023-06-10T06:41:35;11.98;;;11.02;;
25653;SDS011;13511;48.622;9.230;2023-06-10T06:44:01;12.98;;;11.82;;
25653;SDS011;13511;48.622;9.230;2023-06-10T06:46:27;12.25;;;11.35;;
25653;SDS011;13511;48.622;9.230;2023-06-10T06:48:53;12.60;;;11.68;;
25653;SDS011;13511;48.622;9.230;2023-06-10T06:51:19;13.73;;;12.60;;
25653;SDS011;13511;48.622;9.230;2023-06-10T06:53:45;12.45;;;11.60;;
25653;SDS011;13511;48.622;9.230;2023-06-10T06:56:12;11.65;;;10.65;;
25653;SDS011;13511;48.622;9.230;2023-06-10T06:58:38;12.30;;;11.18;;
25653;SDS011;13511;48.622;9.230;2023-06-10T07:01:04;11.73;;;11.02;;
25653;SDS011;13511;48.622;9.230;2023-06-10T07:03:30;11.43;;;10.63;;
25653;SDS011;13511;48.622;9.230;2023-06-10T07:05:57;12.65;;;11.75;;
25653;SDS011;13511;48.622;9.230;2023-06-10T07:08:23;12.48;;;11.38;;
25653;SDS011;13511;48.622;9.230;2023-06-10T07:10:49;12.45;;;11.65;;
25653;SDS011;13511;48.622;9.230;2023-06-10T07:13:15;12.80;;;11.80;;
25653;SDS011;13511;48.622;9.230;2023-06-10T07:15:41;12.07;;;11.05;;
25653;SDS011;13511;48.622;9.230;2023-06-10T07:18:07;11.52;;;10.45;;
25653;SDS011;13511;48.622;9.230;2023-06-10T07:20:33;11.68;;;10.85;;
25653;SDS011;13511;48.622;9.230;2023-06-10T07:22:59;11.13;;;10.43;;
25653;SDS011;13511;48.622;9.230;2023-06-10T07:25:25;11.55;;;10.48;;
25653;SDS011;13511;48.622;9.230;2023-06-10T07:27:51;13.02;;;11.90;;
25653;SDS011;13511;48.622;9.230;2023-06-10T07:30:17;12.35;;;11.55;;
25653;SDS011;13511;48.622;9.230;2023-06-10T07:32:43;11.65;;;10.85;;
25653;SDS011;13511;48.622;9.230;2023-06-10T07:35:09;11.85;;;10.98;;
25653;SDS011;13511;48.622;9.230;2023-06-10T07:37:36;11.52;;;10.80;;
25653;SDS011;13511;48.622;9.230;2023-06-10T07:40:02;11.15;;;10.45;;
25653;SDS011;13511;48.622;9.230;2023-06-10T07:42:28;11.63;;;10.80;;
25653;SDS011;13511;48.622;9.230;2023-06-10T07:44:54;11.45;;;10.65;;
25653;SDS011;13511;48.622;9.230;2023-06-10T07:47:20;11.48;;;10.57;;
25653;SDS011;13511;48.622;9.230;2023-06-10T07:49:46;11.73;;;10.75;;
25653;SDS011;13511;48.622;9.230;2023-06-10T07:52:12;10.90;;;10.10;;
25653;SDS011;13511;48.622;9.230;2023-06-10T07:54:38;11.52;;;9.90;;
25653;SDS011;13511;48.622;9.230;2023-06-10T07:57:04;10.45;;;9.85;;
25653;SDS011;13511;48.622;9.230;2023-06-10T07:59:31;10.65;;;9.95;;
25653;SDS011;13511;48.622;9.230;2023-06-10T08:01:57;10.82;;;10.13;;
25653;SDS011;13511;48.622;9.230;2023-06-10T08:04:23;11.35;;;10.57;;
25653;SDS011;13511;48.622;9.230;2023-06-10T08:06:49;10.80;;;10.10;;
25653;SDS011;13511;48.622;9.230;2023-06-10T08:09:16;10.73;;;10.02;;
25653;SDS011;13511;48.622;9.230;2023-06-10T08:11:43;10.38;;;9.70;;
25653;SDS011;13511;48.622;9.230;2023-06-10T08:14:09;10.25;;;9.65;;
25653;SDS011;13511;48.622;9.230;2023-06-10T08:16:35;10.35;;;9.75;;
25653;SDS011;13511;48.622;9.230;2023-06-10T08:19:01;10.10;;;9.50;;
25653;SDS011;13511;48.622;9.230;2023-06-10T08:21:27;11.55;;;10.73;;
25653;SDS011;13511;48.622;9.230;2023-06-10T08:23:53;10.63;;;9.80;;
25653;SDS011;13511;48.622;9.230;2023-06-10T08:26:20;9.38;;;8.55;;
25653;SDS011;13511;48.622;9.230;2023-06-10T08:28:46;10.55;;;8.50;;
25653;SDS011;13511;48.622;9.230;2023-06-10T08:31:12;9.02;;;8.13;;
25653;SDS011;13511;48.622;9.230;2023-06-10T08:33:38;9.15;;;8.35;;
25653;SDS011;13511;48.622;9.230;2023-06-10T08:36:04;9.32;;;8.73;;
25653;SDS011;13511;48.622;9.230;2023-06-10T08:38:30;9.15;;;8.55;;
25653;SDS011;13511;48.622;9.230;2023-06-10T08:40:56;9.85;;;9.25;;
25653;SDS011;13511;48.622;9.230;2023-06-10T08:43:48;8.60;;;7.90;;
25653;SDS011;13511;48.622;9.230;2023-06-10T08:46:12;8.25;;;7.75;;
25653;SDS011;13511;48.622;9.230;2023-06-10T08:48:43;9.02;;;8.13;;
25653;SDS011;13511;48.622;9.230;2023-06-10T08:51:10;7.90;;;7.50;;
25653;SDS011;13511;48.622;9.230;2023-06-10T08:53:37;8.93;;;8.13;;
25653;SDS011;13511;48.622;9.230;2023-06-10T08:56:04;12.00;;;8.10;;
25653;SDS011;13511;48.622;9.230;2023-06-10T08:58:32;10.15;;;8.90;;
25653;SDS011;13511;48.622;9.230;2023-06-10T09:01:00;19.35;;;11.43;;
25653;SDS011;13511;48.622;9.230;2023-06-10T09:03:26;8.85;;;8.25;;
25653;SDS011;13511;48.622;9.230;2023-06-10T09:05:53;7.68;;;7.28;;
25653;SDS011;13511;48.622;9.230;2023-06-10T09:08:20;7.85;;;7.40;;
25653;SDS011;13511;48.622;9.230;2023-06-10T09:10:46;7.90;;;7.40;;
25653;SDS011;13511;48.622;9.230;2023-06-10T09:13:13;7.75;;;7.25;;
25653;SDS011;13511;48.622;9.230;2023-06-10T09:15:40;8.20;;;7.70;;
25653;SDS011;13511;48.622;9.230;2023-06-10T09:18:06;7.53;;;6.93;;
25653;SDS011;13511;48.622;9.230;2023-06-10T09:20:33;8.13;;;7.03;;
25653;SDS011;13511;48.622;9.230;2023-06-10T09:22:59;7.40;;;7.00;;
25653;SDS011;13511;48.622;9.230;2023-06-10T09:25:35;8.32;;;7.82;;
25653;SDS011;13511;48.622;9.230;2023-06-10T09:28:04;8.73;;;8.00;;
25653;SDS011;13511;48.622;9.230;2023-06-10T09:30:31;8.20;;;7.70;;
25653;SDS011;13511;48.622;9.230;2023-06-10T09:32:59;7.40;;;7.00;;
25653;SDS011;13511;48.622;9.230;2023-06-10T09:35:26;7.88;;;7.38;;
25653;SDS011;13511;48.622;9.230;2023-06-10T09:37:52;7.53;;;7.03;;
25653;SDS011;13511;48.622;9.230;2023-06-10T09:40:19;7.57;;;7.07;;
25653;SDS011;13511;48.622;9.230;2023-06-10T09:42:45;8.07;;;7.47;;
25653;SDS011;13511;48.622;9.230;2023-06-10T09:45:18;7.85;;;7.22;;
25653;SDS011;13511;48.622;9.230;2023-06-10T09:47:46;8.70;;;8.02;;
25653;SDS011;13511;48.622;9.230;2023-06-10T09:50:12;7.70;;;7.30;;
25653;SDS011;13511;48.622;9.230;2023-06-10T09:52:38;8.13;;;7.50;;
25653;SDS011;13511;48.622;9.230;2023-06-10T09:55:04;7.65;;;7.10;;
25653;SDS011;13511;48.622;9.230;2023-06-10T09:57:30;8.10;;;7.47;;
25653;SDS011;13511;48.622;9.230;2023-06-10T10:00:04;8.02;;;7.22;;
25653;SDS011;13511;48.622;9.230;2023-06-10T10:02:30;7.85;;;7.10;;
25653;SDS011;13511;48.622;9.230;2023-06-10T10:05:03;7.20;;;6.80;;
25653;SDS011;13511;48.622;9.230;2023-06-10T10:07:29;7.45;;;6.95;;
25653;SDS011;13511;48.622;9.230;2023-06-10T10:09:55;7.07;;;6.53;;
25653;SDS011;13511;48.622;9.230;2023-06-10T10:12:21;7.53;;;7.03;;
25653;SDS011;13511;48.622;9.230;2023-06-10T10:14:48;7.22;;;6.78;;
25653;SDS011;13511;48.622;9.230;2023-06-10T10:17:15;7.18;;;6.68;;
25653;SDS011;13511;48.622;9.230;2023-06-10T10:19:48;6.93;;;6.40;;
25653;SDS011;13511;48.622;9.230;2023-06-10T10:22:20;7.18;;;6.78;;
25653;SDS011;13511;48.622;9.230;2023-06-10T10:24:54;7.18;;;6.78;;
25653;SDS011;13511;48.622;9.230;2023-06-10T10:27:28;7.53;;;6.90;;
25653;SDS011;13511;48.622;9.230;2023-06-10T10:29:56;7.05;;;6.65;;
25653;SDS011;13511;48.622;9.230;2023-06-10T10:32:35;7.20;;;6.80;;
25653;SDS011;13511;48.622;9.230;2023-06-10T10:37:32;6.70;;;6.05;;
25653;SDS011;13511;48.622;9.230;2023-06-10T10:39:58;6.03;;;5.72;;
25653;SDS011;13511;48.622;9.230;2023-06-10T10:42:25;6.95;;;6.55;;
25653;SDS011;13511;48.622;9.230;2023-06-10T10:44:51;5.90;;;5.50;;
25653;SDS011;13511;48.622;9.230;2023-06-10T10:47:19;6.97;;;6.35;;
25653;SDS011;13511;48.622;9.230;2023-06-10T10:49:47;6.07;;;5.63;;
25653;SDS011;13511;48.622;9.230;2023-06-10T10:52:14;6.57;;;6.28;;
25653;SDS011;13511;48.622;9.230;2023-06-10T10:54:43;6.47;;;6.18;;
25653;SDS011;13511;48.622;9.230;2023-06-10T10:59:45;6.07;;;5.78;;
25653;SDS011;13511;48.622;9.230;2023-06-10T11:02:15;6.50;;;6.20;;
25653;SDS011;13511;48.622;9.230;2023-06-10T11:04:46;6.35;;;5.90;;
25653;SDS011;13511;48.622;9.230;2023-06-10T11:07:12;6.65;;;6.20;;
25653;SDS011;13511;48.622;9.230;2023-06-10T11:10:28;6.63;;;6.20;;
25653;SDS011;13511;48.622;9.230;2023-06-10T11:15:33;6.10;;;5.70;;
25653;SDS011;13511;48.622;9.230;2023-06-10T11:18:07;6.72;;;6.28;;
25653;SDS011;13511;48.622;9.230;2023-06-10T11:25:51;6.93;;;6.45;;
25653;SDS011;13511;48.622;9.230;2023-06-10T11:28:17;5.97;;;5.57;;
25653;SDS011;13511;48.622;9.230;2023-06-10T11:30:44;7.28;;;6.22;;
25653;SDS011;13511;48.622;9.230;2023-06-10T11:33:14;6.30;;;6.00;;
25653;SDS011;13511;48.622;9.230;2023-06-10T11:35:40;6.68;;;5.57;;
25653;SDS011;13511;48.622;9.230;2023-06-10T11:38:06;6.28;;;5.70;;
25653;SDS011;13511;48.622;9.230;2023-06-10T11:40:32;6.50;;;5.95;;
25653;SDS011;13511;48.622;9.230;2023-06-10T11:42:59;5.95;;;5.47;;
25653;SDS011;13511;48.622;9.230;2023-06-10T11:45:25;5.60;;;5.30;;
25653;SDS011;13511;48.622;9.230;2023-06-10T11:47:57;6.65;;;6.15;;
25653;SDS011;13511;48.622;9.230;2023-06-10T11:50:31;6.35;;;5.72;;
25653;SDS011;13511;48.622;9.230;2023-06-10T11:52:57;6.13;;;5.82;;
25653;SDS011;13511;48.622;9.230;2023-06-10T11:55:24;6.00;;;5.70;;
25653;SDS011;13511;48.622;9.230;2023-06-10T11:57:50;6.28;;;5.88;;
25653;SDS011;13511;48.622;9.230;2023-06-10T12:00:22;6.32;;;5.93;;
25653;SDS011;13511;48.622;9.230;2023-06-10T12:02:56;5.68;;;5.18;;
25653;SDS011;13511;48.622;9.230;2023-06-10T12:05:22;6.13;;;5.32;;
25653;SDS011;13511;48.622;9.230;2023-06-10T12:07:48;5.25;;;5.03;;
25653;SDS011;13511;48.622;9.230;2023-06-10T12:10:14;5.60;;;5.30;;
25653;SDS011;13511;48.622;9.230;2023-06-10T12:12:41;6.07;;;5.78;;
25653;SDS011;13511;48.622;9.230;2023-06-10T12:15:08;5.85;;;5.35;;
25653;SDS011;13511;48.622;9.230;2023-06-10T12:20:01;5.22;;;5.03;;
25653;SDS011;13511;48.622;9.230;2023-06-10T12:22:43;5.07;;;4.88;;
25653;SDS011;13511;48.622;9.230;2023-06-10T12:25:10;5.13;;;4.90;;
25653;SDS011;13511;48.622;9.230;2023-06-10T12:27:36;5.40;;;5.00;;
25653;SDS011;13511;48.622;9.230;2023-06-10T12:30:03;5.57;;;5.28;;
25653;SDS011;13511;48.622;9.230;2023-06-10T12:32:43;5.97;;;5.53;;
25653;SDS011;13511;48.622;9.230;2023-06-10T12:35:10;5.40;;;5.10;;
25653;SDS011;13511;48.622;9.230;2023-06-10T12:37:37;5.82;;;5.50;;
25653;SDS011;13511;48.622;9.230;2023-06-10T12:40:04;5.00;;;4.80;;
25653;SDS011;13511;48.622;9.230;2023-06-10T12:42:35;4.97;;;4.57;;
25653;SDS011;13511;48.622;9.230;2023-06-10T12:45:01;5.20;;;4.88;;
25653;SDS011;13511;48.622;9.230;2023-06-10T12:47:34;5.10;;;4.90;;
25653;SDS011;13511;48.622;9.230;2023-06-10T12:50:01;6.18;;;5.68;;
25653;SDS011;13511;48.622;9.230;2023-06-10T12:52:28;4.93;;;4.65;;
25653;SDS011;13511;48.622;9.230;2023-06-10T12:54:54;5.00;;;4.80;;
25653;SDS011;13511;48.622;9.230;2023-06-10T12:57:23;5.05;;;4.80;;
25653;SDS011;13511;48.622;9.230;2023-06-10T12:59:49;5.10;;;4.90;;
25653;SDS011;13511;48.622;9.230;2023-06-10T13:02:18;5.00;;;4.70;;
25653;SDS011;13511;48.622;9.230;2023-06-10T13:04:45;5.90;;;5.57;;
25653;SDS011;13511;48.622;9.230;2023-06-10T13:07:11;5.18;;;4.93;;
25653;SDS011;13511;48.622;9.230;2023-06-10T13:09:37;5.40;;;4.95;;
25653;SDS011;13511;48.622;9.230;2023-06-10T13:12:03;5.93;;;5.55;;
25653;SDS011;13511;48.622;9.230;2023-06-10T13:14:29;6.80;;;6.32;;
25653;SDS011;13511;48.622;9.230;2023-06-10T13:16:55;5.65;;;5.35;;
25653;SDS011;13511;48.622;9.230;2023-06-10T13:19:21;6.10;;;5.60;;
25653;SDS011;13511;48.622;9.230;2023-06-10T13:21:48;5.18;;;4.90;;
25653;SDS011;13511;48.622;9.230;2023-06-10T13:24:14;5.90;;;5.50;;
25653;SDS011;13511;48.622;9.230;2023-06-10T13:26:40;5.63;;;5.10;;
25653;SDS011;13511;48.622;9.230;2023-06-10T13:29:06;5.53;;;5.13;;
25653;SDS011;13511;48.622;9.230;2023-06-10T13:31:33;4.68;;;4.45;;
25653;SDS011;13511;48.622;9.230;2023-06-10T13:33:59;5.20;;;4.78;;
25653;SDS011;13511;48.622;9.230;2023-06-10T13:36:25;5.25;;;4.95;;
25653;SDS011;13511;48.622;9.230;2023-06-10T13:38:51;5.75;;;5.35;;
25653;SDS011;13511;48.622;9.230;2023-06-10T13:41:17;5.38;;;5.10;;
25653;SDS011;13511;48.622;9.230;2023-06-10T13:43:43;5.13;;;4.90;;
25653;SDS011;13511;48.622;9.230;2023-06-10T13:46:09;5.00;;;4.70;;
25653;SDS011;13511;48.622;9.230;2023-06-10T13:48:35;5.57;;;5.20;;
25653;SDS011;13511;48.622;9.230;2023-06-10T13:51:01;5.03;;;4.75;;
25653;SDS011;13511;48.622;9.230;2023-06-10T13:53:27;5.40;;;5.00;;
25653;SDS011;13511;48.622;9.230;2023-06-10T13:55:53;5.50;;;5.10;;
25653;SDS011;13511;48.622;9.230;2023-06-10T13:58:19;5.00;;;4.78;;
25653;SDS011;13511;48.622;9.230;2023-06-10T14:00:45;5.15;;;4.75;;
25653;SDS011;13511;48.622;9.230;2023-06-10T14:03:12;5.22;;;4.93;;
25653;SDS011;13511;48.622;9.230;2023-06-10T14:05:38;4.97;;;4.65;;
25653;SDS011;13511;48.622;9.230;2023-06-10T14:08:04;5.28;;;4.93;;
25653;SDS011;13511;48.622;9.230;2023-06-10T14:10:30;5.78;;;5.00;;
25653;SDS011;13511;48.622;9.230;2023-06-10T14:12:56;5.38;;;5.10;;
25653;SDS011;13511;48.622;9.230;2023-06-10T14:15:22;5.15;;;4.82;;
25653;SDS011;13511;48.622;9.230;2023-06-10T14:17:48;5.35;;;5.00;;
25653;SDS011;13511;48.622;9.230;2023-06-10T14:20:14;5.45;;;4.95;;
25653;SDS011;13511;48.622;9.230;2023-06-10T14:22:40;5.50;;;5.10;;
25653;SDS011;13511;48.622;9.230;2023-06-10T14:25:06;4.95;;;4.68;;
25653;SDS011;13511;48.622;9.230;2023-06-10T14:27:32;5.10;;;4.85;;
25653;SDS011;13511;48.622;9.230;2023-06-10T14:29:58;5.10;;;4.70;;
25653;SDS011;13511;48.622;9.230;2023-06-10T14:32:24;5.22;;;4.78;;
25653;SDS011;13511;48.622;9.230;2023-06-10T14:34:50;5.30;;;5.10;;
25653;SDS011;13511;48.622;9.230;2023-06-10T14:37:16;5.38;;;5.07;;
25653;SDS011;13511;48.622;9.230;2023-06-10T14:39:42;5.13;;;4.82;;
25653;SDS011;13511;48.622;9.230;2023-06-10T14:42:08;5.72;;;5.40;;
25653;SDS011;13511;48.622;9.230;2023-06-10T14:44:35;5.50;;;5.20;;
25653;SDS011;13511;48.622;9.230;2023-06-10T14:47:01;5.70;;;5.43;;
25653;SDS011;13511;48.622;9.230;2023-06-10T14:49:27;5.65;;;5.32;;
25653;SDS011;13511;48.622;9.230;2023-06-10T14:51:53;7.47;;;5.53;;
25653;SDS011;13511;48.622;9.230;2023-06-10T14:54:19;5.80;;;5.50;;